Time;durP1;ratioP1;P1;durP2;ratioP2;P2;SDS_P1;SDS_P2;PMS_P1;PMS_P2;Temp;Humidity;BMP_temperature;BMP_pressure;BME280_temperature;BME280_humidity;BME280_pressure;Samples;Min_cycle;Max_cycle;Signal;HPM_P1;HPM_P2
2021/05/01 00:01:03;;;;;;;17.60;9.27;;;487.00;1894.40;;;;;;5112722;28;20027;-74
2021/05/01 00:03:29;;;;;;;15.98;9.52;;;487.00;1868.80;;;;;;5112515;28;20024;-74
2021/05/01 00:05:55;;;;;;;17.95;9.68;;;487.10;1843.20;;;;;;5112662;28;20113;-74
2021/05/01 00:08:22;;;;;;;21.63;8.32;;;487.20;1843.20;;;;;;5112358;28;20581;-75
2021/05/01 00:10:48;;;;;;;21.48;8.70;;;487.20;1843.20;;;;;;5112490;28;20024;-75
2021/05/01 00:13:14;;;;;;;17.65;8.30;;;487.20;1817.60;;;;;;5112275;28;20020;-75
2021/05/01 00:15:40;;;;;;;16.85;8.05;;;487.20;1817.60;;;;;;5112442;28;20019;-74
2021/05/01 00:18:05;;;;;;;16.60;8.30;;;487.20;1792.00;;;;;;5112240;28;20473;-75
2021/05/01 00:20:31;;;;;;;13.07;8.82;;;487.20;1817.60;;;;;;5112439;28;20035;-74
2021/05/01 00:22:57;;;;;;;22.40;8.80;;;487.20;1792.00;;;;;;5112245;28;20030;-75
2021/05/01 00:25:23;;;;;;;19.05;8.95;;;487.20;1817.60;;;;;;5110909;28;20031;-74
2021/05/01 00:27:49;;;;;;;21.02;9.20;;;487.20;1817.60;;;;;;5110681;28;20051;-74
2021/05/01 00:30:15;;;;;;;19.20;10.23;;;487.20;1792.00;;;;;;5110725;28;20024;-74
2021/05/01 00:32:41;;;;;;;17.63;9.80;;;487.10;1792.00;;;;;;5110926;28;20111;-74
2021/05/01 00:35:07;;;;;;;12.77;8.57;;;487.00;1817.60;;;;;;5111969;28;20485;-74
2021/05/01 00:37:33;;;;;;;15.48;8.57;;;487.00;1843.20;;;;;;5112138;28;20092;-74
2021/05/01 00:39:58;;;;;;;14.65;8.75;;;486.90;1843.20;;;;;;5110605;28;20070;-75
2021/05/01 00:42:24;;;;;;;15.05;9.15;;;486.80;1868.80;;;;;;5111392;28;20489;-75
2021/05/01 00:44:50;;;;;;;16.83;9.88;;;486.70;1868.80;;;;;;5112233;28;20100;-75
2021/05/01 00:47:16;;;;;;;14.75;9.43;;;486.70;1894.40;;;;;;5112209;28;20024;-75
2021/05/01 00:49:41;;;;;;;16.17;9.70;;;486.60;1894.40;;;;;;5104305;28;20035;-75
2021/05/01 00:52:07;;;;;;;14.38;9.23;;;486.60;1894.40;;;;;;5091128;28;20028;-75
2021/05/01 00:54:33;;;;;;;15.80;8.75;;;486.60;1894.40;;;;;;5093353;28;20092;-74
2021/05/01 00:56:59;;;;;;;17.58;8.82;;;486.60;1894.40;;;;;;5103170;28;20544;-75
2021/05/01 00:59:25;;;;;;;15.25;8.80;;;486.70;1868.80;;;;;;5111851;28;20028;-76
2021/05/01 01:01:54;;;;;;;17.15;8.68;;;486.70;1868.80;;;;;;5111803;28;20066;-75
2021/05/01 01:04:19;;;;;;;14.55;9.15;;;486.70;1868.80;;;;;;5111722;28;20032;-75
2021/05/01 01:06:46;;;;;;;16.13;9.30;;;486.70;1843.20;;;;;;5110643;28;20095;-75
2021/05/01 01:09:13;;;;;;;15.48;9.25;;;486.70;1843.20;;;;;;5113467;28;20117;-76
2021/05/01 01:11:40;;;;;;;14.13;8.65;;;486.60;1843.20;;;;;;5128971;28;20084;-76
2021/05/01 01:14:07;;;;;;;16.58;8.60;;;486.60;1843.20;;;;;;5111613;28;20027;-76
2021/05/01 01:16:34;;;;;;;13.68;9.10;;;486.70;1817.60;;;;;;5112255;28;20538;-75
2021/05/01 01:19:01;;;;;;;10.65;7.72;;;486.70;1817.60;;;;;;5113392;28;20035;-75
2021/05/01 01:21:27;;;;;;;21.65;7.57;;;486.70;1792.00;;;;;;5112120;28;20023;-75
2021/05/01 01:23:54;;;;;;;12.95;6.57;;;486.70;1817.60;;;;;;5113685;28;20157;-75
2021/05/01 01:26:20;;;;;;;16.15;6.93;;;486.70;1792.00;;;;;;5113243;28;20048;-75
2021/05/01 01:28:47;;;;;;;14.25;6.80;;;486.80;1766.40;;;;;;5111984;28;20397;-76
2021/05/01 01:31:13;;;;;;;16.27;5.93;;;486.80;1766.40;;;;;;5113363;28;20023;-76
2021/05/01 01:33:39;;;;;;;10.52;6.72;;;486.80;1766.40;;;;;;5111725;28;20381;-75
2021/05/01 01:36:08;;;;;;;14.52;5.93;;;486.90;1766.40;;;;;;5111082;28;20476;-76
2021/05/01 01:38:34;;;;;;;11.32;6.32;;;486.90;1766.40;;;;;;5111995;28;20112;-76
2021/05/01 01:41:01;;;;;;;15.43;6.35;;;487.00;1766.40;;;;;;5111972;28;20081;-75
2021/05/01 01:43:26;;;;;;;10.30;5.78;;;487.00;1766.40;;;;;;5113515;28;20027;-75
2021/05/01 01:45:53;;;;;;;10.82;6.05;;;487.00;1766.40;;;;;;5111936;28;20028;-76
2021/05/01 01:48:19;;;;;;;18.92;7.28;;;487.00;1766.40;;;;;;5110972;28;20020;-75
2021/05/01 01:50:45;;;;;;;11.65;6.43;;;487.00;1766.40;;;;;;5111675;28;20476;-75
2021/05/01 01:53:11;;;;;;;13.20;7.03;;;487.00;1766.40;;;;;;5113259;28;20054;-75
2021/05/01 01:55:36;;;;;;;16.42;6.45;;;486.90;1792.00;;;;;;5115128;28;20063;-75
2021/05/01 01:58:03;;;;;;;11.93;6.20;;;486.90;1792.00;;;;;;5117009;28;20027;-75
2021/05/01 02:00:30;;;;;;;18.00;6.90;;;486.90;1792.00;;;;;;5117028;28;20532;-76
2021/05/01 02:02:56;;;;;;;10.68;5.35;;;486.90;1792.00;;;;;;5116768;28;20058;-76
2021/05/01 02:05:23;;;;;;;14.95;5.75;;;486.90;1792.00;;;;;;5116938;28;20031;-75
2021/05/01 02:07:49;;;;;;;11.18;5.70;;;486.90;1792.00;;;;;;5116458;28;20024;-75
2021/05/01 02:10:17;;;;;;;11.82;6.25;;;486.90;1792.00;;;;;;5115143;28;20031;-75
2021/05/01 02:12:43;;;;;;;12.85;4.68;;;486.90;1792.00;;;;;;5114831;28;20378;-76
2021/05/01 02:15:10;;;;;;;10.95;5.82;;;486.90;1792.00;;;;;;5115158;28;20015;-76
2021/05/01 02:17:39;;;;;;;11.95;6.57;;;486.90;1792.00;;;;;;5116467;28;20012;-75
2021/05/01 02:20:06;;;;;;;19.92;8.50;;;486.90;1817.60;;;;;;5114970;28;20020;-75
2021/05/01 02:22:33;;;;;;;16.50;6.72;;;486.90;1817.60;;;;;;5116271;28;20370;-77
2021/05/01 02:24:58;;;;;;;13.27;8.23;;;486.90;1817.60;;;;;;5116194;28;20432;-74
2021/05/01 02:27:24;;;;;;;13.05;7.57;;;486.90;1817.60;;;;;;5114635;28;20082;-75
2021/05/01 02:29:50;;;;;;;16.60;6.65;;;486.90;1817.60;;;;;;5114724;28;20745;-76
2021/05/01 02:32:15;;;;;;;16.15;6.38;;;486.80;1817.60;;;;;;5113824;28;20024;-75
2021/05/01 02:34:41;;;;;;;11.90;5.70;;;486.80;1843.20;;;;;;5116315;28;20043;-75
2021/05/01 02:37:09;;;;;;;10.32;6.28;;;486.80;1843.20;;;;;;5116021;28;20018;-75
2021/05/01 02:39:35;;;;;;;12.85;5.85;;;486.80;1843.20;;;;;;5115827;28;20031;-76
2021/05/01 02:42:01;;;;;;;14.30;6.65;;;486.70;1843.20;;;;;;5116199;28;20089;-75
2021/05/01 02:44:27;;;;;;;9.45;6.20;;;486.70;1868.80;;;;;;5114480;28;20050;-75
2021/05/01 02:46:52;;;;;;;15.20;8.00;;;486.70;1868.80;;;;;;5115830;28;20106;-75
2021/05/01 02:49:18;;;;;;;11.18;5.97;;;486.70;1868.80;;;;;;5115606;28;20015;-76
2021/05/01 02:51:44;;;;;;;12.05;6.20;;;486.70;1868.80;;;;;;5114077;28;20032;-76
2021/05/01 02:54:10;;;;;;;12.27;6.07;;;486.60;1868.80;;;;;;5114372;28;20045;-74
2021/05/01 02:56:36;;;;;;;9.70;5.97;;;486.60;1868.80;;;;;;5115579;28;20020;-75
2021/05/01 02:59:02;;;;;;;10.60;5.88;;;486.60;1894.40;;;;;;5116042;28;20369;-75
2021/05/01 03:01:28;;;;;;;12.43;5.80;;;486.50;1894.40;;;;;;5114363;28;20024;-75
2021/05/01 03:03:53;;;;;;;14.35;6.00;;;486.50;1894.40;;;;;;5115550;28;20038;-75
2021/05/01 03:06:19;;;;;;;10.48;5.72;;;486.50;1894.40;;;;;;5113901;28;20550;-75
2021/05/01 03:08:45;;;;;;;13.70;6.93;;;486.50;1894.40;;;;;;5113900;28;20531;-75
2021/05/01 03:11:10;;;;;;;10.20;6.43;;;486.50;1920.00;;;;;;5115449;28;20020;-76
2021/05/01 03:13:36;;;;;;;9.93;6.50;;;486.50;1920.00;;;;;;5113169;28;20126;-75
2021/05/01 03:16:02;;;;;;;10.60;6.47;;;486.40;1920.00;;;;;;5115009;28;20725;-76
2021/05/01 03:18:28;;;;;;;13.48;6.47;;;486.40;1920.00;;;;;;5113033;28;20035;-75
2021/05/01 03:20:54;;;;;;;9.77;5.78;;;461.70;1920.00;;;;;;5114587;28;20031;-75
2021/05/01 03:23:20;;;;;;;9.05;5.88;;;461.60;1920.00;;;;;;5113858;28;20110;-74
2021/05/01 03:25:47;;;;;;;13.02;5.47;;;461.60;1945.60;;;;;;5113375;28;20396;-75
2021/05/01 03:28:13;;;;;;;11.70;6.05;;;461.60;1945.60;;;;;;5114675;28;20102;-74
2021/05/01 03:30:38;;;;;;;13.98;5.60;;;461.60;1945.60;;;;;;5114633;28;20065;-74
2021/05/01 03:33:04;;;;;;;13.02;5.88;;;461.60;1945.60;;;;;;5114851;28;20020;-75
2021/05/01 03:35:30;;;;;;;22.90;5.90;;;461.50;1945.60;;;;;;5113524;28;20050;-74
2021/05/01 03:37:56;;;;;;;16.02;5.50;;;461.50;1971.20;;;;;;5113303;28;20051;-76
2021/05/01 03:40:22;;;;;;;10.13;6.32;;;461.50;1971.20;;;;;;5113138;28;20081;-73
2021/05/01 03:42:48;;;;;;;10.02;5.93;;;461.40;1996.80;;;;;;5112962;28;20027;-74
2021/05/01 03:45:14;;;;;;;15.90;6.20;;;461.40;1996.80;;;;;;5114012;28;20027;-74
2021/05/01 03:47:40;;;;;;;9.27;5.63;;;461.40;2022.40;;;;;;5114766;28;20137;-75
2021/05/01 03:50:07;;;;;;;9.45;4.88;;;461.30;2022.40;;;;;;5114708;28;20103;-76
2021/05/01 03:52:34;;;;;;;9.07;5.47;;;461.30;2048.00;;;;;;5130059;27;20450;-75
2021/05/01 03:55:00;;;;;;;11.15;5.05;;;461.30;2073.60;;;;;;5112971;28;20024;-76
2021/05/01 03:57:26;;;;;;;9.45;4.93;;;461.30;2073.60;;;;;;5113576;28;20024;-76
2021/05/01 03:59:52;;;;;;;10.65;5.22;;;461.20;2073.60;;;;;;5113703;28;20035;-76
2021/05/01 04:02:18;;;;;;;9.65;5.43;;;461.20;2099.20;;;;;;5114482;28;20035;-75
2021/05/01 04:04:44;;;;;;;13.20;6.68;;;461.20;2099.20;;;;;;5112655;28;20040;-76
2021/05/01 04:07:10;;;;;;;11.23;6.70;;;461.20;2073.60;;;;;;5114251;28;20085;-75
2021/05/01 04:09:35;;;;;;;24.13;7.78;;;461.20;2124.80;;;;;;5112722;28;20484;-76
2021/05/01 04:12:01;;;;;;;42.83;12.15;;;461.20;2150.40;;;;;;5114228;27;20102;-76
2021/05/01 04:14:27;;;;;;;23.45;8.65;;;461.20;2201.60;;;;;;5114239;28;20027;-76
2021/05/01 04:16:53;;;;;;;11.43;6.57;;;461.10;2227.20;;;;;;5111852;28;20061;-76
2021/05/01 04:19:18;;;;;;;10.95;6.22;;;461.10;2201.60;;;;;;5114032;28;20080;-76
2021/05/01 04:21:44;;;;;;;16.77;6.82;;;461.10;2201.60;;;;;;5114019;28;20390;-76
2021/05/01 04:24:10;;;;;;;12.95;9.15;;;461.00;2201.60;;;;;;5114072;28;20384;-75
2021/05/01 04:26:36;;;;;;;9.02;6.72;;;461.00;2201.60;;;;;;5112598;28;20130;-76
2021/05/01 04:29:02;;;;;;;14.18;6.90;;;461.00;2201.60;;;;;;5114024;28;20036;-75
2021/05/01 04:31:27;;;;;;;11.95;7.00;;;461.00;2227.20;;;;;;5112633;28;20031;-76
2021/05/01 04:33:53;;;;;;;11.95;7.05;;;461.00;2252.80;;;;;;5113825;28;20441;-75
2021/05/01 04:36:19;;;;;;;13.60;7.65;;;461.00;2252.80;;;;;;5113821;28;20019;-76
2021/05/01 04:38:46;;;;;;;12.23;6.32;;;461.00;2252.80;;;;;;5112864;28;20396;-75
2021/05/01 04:41:11;;;;;;;15.32;7.93;;;461.00;2252.80;;;;;;5113564;28;20030;-75
2021/05/01 04:43:39;;;;;;;11.73;7.68;;;461.00;2252.80;;;;;;5113943;28;20093;-75
2021/05/01 04:46:05;;;;;;;14.25;8.00;;;461.00;2252.80;;;;;;5112955;28;20412;-76
2021/05/01 04:48:31;;;;;;;14.77;7.70;;;460.90;2278.40;;;;;;5112583;28;20027;-75
2021/05/01 04:50:57;;;;;;;17.20;9.30;;;460.90;2278.40;;;;;;5113228;28;20024;-75
2021/05/01 04:53:23;;;;;;;16.27;8.25;;;460.80;2304.00;;;;;;5111931;28;20484;-75
2021/05/01 04:55:49;;;;;;;14.20;8.13;;;460.80;2304.00;;;;;;5113635;28;20020;-75
2021/05/01 04:58:15;;;;;;;13.57;7.55;;;460.90;2304.00;;;;;;5113719;28;20102;-75
2021/05/01 05:00:41;;;;;;;15.40;8.50;;;460.90;2304.00;;;;;;5113684;28;20024;-75
2021/05/01 05:03:07;;;;;;;18.55;8.90;;;460.90;2304.00;;;;;;5113137;28;20111;-75
2021/05/01 05:05:33;;;;;;;17.83;8.07;;;460.90;2329.60;;;;;;5113481;28;20503;-75
2021/05/01 05:07:59;;;;;;;18.08;10.85;;;461.00;2329.60;;;;;;5113428;28;20076;-74
2021/05/01 05:10:25;;;;;;;24.67;13.15;;;461.00;2304.00;;;;;;5113444;28;20019;-74
2021/05/01 05:12:51;;;;;;;25.98;12.63;;;461.00;2304.00;;;;;;5113574;28;20035;-74
2021/05/01 05:15:16;;;;;;;21.58;10.50;;;461.00;2329.60;;;;;;5113503;28;20420;-75
2021/05/01 05:17:42;;;;;;;16.73;8.90;;;461.00;2304.00;;;;;;5113506;28;20019;-74
2021/05/01 05:20:09;;;;;;;22.55;9.27;;;461.10;2304.00;;;;;;5113481;28;20500;-76
2021/05/01 05:22:35;;;;;;;16.48;8.40;;;461.10;2304.00;;;;;;5112514;28;20074;-74
2021/05/01 05:25:01;;;;;;;36.90;19.00;;;461.10;2304.00;;;;;;5113375;28;20447;-75
2021/05/01 05:27:27;;;;;;;17.58;9.52;;;461.20;2304.00;;;;;;5112333;28;20039;-75
2021/05/01 05:29:53;;;;;;;13.27;8.05;;;461.20;2304.00;;;;;;5117295;28;20028;-75
2021/05/01 05:32:20;;;;;;;16.40;8.27;;;461.20;2304.00;;;;;;5117375;28;20072;-74
2021/05/01 05:34:46;;;;;;;19.55;9.40;;;461.20;2304.00;;;;;;5117446;28;20046;-75
2021/05/01 05:37:12;;;;;;;19.40;9.50;;;461.20;2278.40;;;;;;5117238;27;20462;-75
2021/05/01 05:39:40;;;;;;;14.65;8.15;;;461.30;2304.00;;;;;;5115491;28;20031;-76
2021/05/01 05:42:08;;;;;;;17.58;8.40;;;461.30;2278.40;;;;;;5115374;28;20403;-74
2021/05/01 05:44:34;;;;;;;14.43;8.20;;;461.30;2278.40;;;;;;5115330;28;20039;-75
2021/05/01 05:47:00;;;;;;;17.48;7.75;;;461.40;2252.80;;;;;;5116954;28;20024;-74
2021/05/01 05:49:26;;;;;;;10.55;7.03;;;461.40;2278.40;;;;;;5132254;27;20035;-75
2021/05/01 05:51:51;;;;;;;9.70;6.72;;;461.50;2278.40;;;;;;5115500;28;20026;-74
2021/05/01 05:54:17;;;;;;;14.93;6.35;;;461.50;2252.80;;;;;;5116831;28;20020;-74
2021/05/01 05:56:43;;;;;;;15.45;6.00;;;461.50;2252.80;;;;;;5115655;28;20031;-74
2021/05/01 05:59:09;;;;;;;7.70;5.90;;;461.50;2227.20;;;;;;5116645;28;20034;-74
2021/05/01 06:01:39;;;;;;;8.82;6.28;;;461.50;2227.20;;;;;;5116636;28;20715;-75
2021/05/01 06:04:09;;;;;;;13.02;6.03;;;461.50;2252.80;;;;;;5115774;28;20020;-74
2021/05/01 06:06:42;;;;;;;11.88;5.85;;;461.60;2252.80;;;;;;5116654;28;20024;-75
2021/05/01 06:09:07;;;;;;;15.93;6.80;;;461.60;2252.80;;;;;;5116477;28;20023;-75
2021/05/01 06:11:33;;;;;;;10.15;6.55;;;461.60;2252.80;;;;;;5132274;27;20028;-75
2021/05/01 06:14:03;;;;;;;12.38;6.35;;;461.70;2227.20;;;;;;5116412;28;20026;-74
2021/05/01 06:16:31;;;;;;;12.23;5.85;;;461.70;2252.80;;;;;;5114771;28;20031;-75
2021/05/01 06:18:58;;;;;;;11.40;5.85;;;486.40;2252.80;;;;;;5116469;28;20032;-75
2021/05/01 06:21:24;;;;;;;8.85;6.20;;;486.50;2227.20;;;;;;5131657;27;20128;-74
2021/05/01 06:23:49;;;;;;;8.05;6.05;;;486.50;2227.20;;;;;;5115949;28;20506;-75
2021/05/01 06:26:15;;;;;;;12.93;6.28;;;486.50;2227.20;;;;;;5116152;28;20058;-75
2021/05/01 06:28:42;;;;;;;12.00;7.18;;;486.60;2227.20;;;;;;5114730;28;20042;-75
2021/05/01 06:31:08;;;;;;;11.63;6.60;;;486.70;2252.80;;;;;;5115968;28;20102;-74
2021/05/01 06:33:41;;;;;;;15.15;7.68;;;486.70;2227.20;;;;;;5116170;28;20020;-74
2021/05/01 06:36:09;;;;;;;14.77;8.38;;;486.70;2227.20;;;;;;5115901;27;20030;-75
2021/05/01 06:38:36;;;;;;;15.48;7.05;;;486.70;2227.20;;;;;;5114703;28;20019;-74
2021/05/01 06:41:07;;;;;;;9.55;6.25;;;486.90;2227.20;;;;;;5130624;27;20444;-75
2021/05/01 06:43:59;;;;;;;12.77;7.63;;;486.90;2227.20;;;;;;5113912;28;20063;-74
2021/05/01 06:46:27;;;;;;;10.90;6.70;;;486.90;2252.80;;;;;;5114833;27;20115;-75
2021/05/01 06:48:54;;;;;;;18.08;7.70;;;487.00;2227.20;;;;;;5115043;28;20023;-75
2021/05/01 06:51:20;;;;;;;13.88;6.80;;;487.00;2252.80;;;;;;5113867;28;20027;-75
2021/05/01 06:53:46;;;;;;;18.60;7.15;;;487.00;2227.20;;;;;;5115382;28;20020;-75
2021/05/01 06:56:13;;;;;;;10.15;8.45;;;487.10;2201.60;;;;;;5114309;28;20392;-75
2021/05/01 06:58:41;;;;;;;16.45;7.60;;;487.20;2227.20;;;;;;5113898;28;20036;-76
2021/05/01 07:01:10;;;;;;;16.85;7.53;;;487.20;2201.60;;;;;;5113794;28;20088;-75
2021/05/01 07:03:47;;;;;;;13.35;7.55;;;487.30;2176.00;;;;;;5115342;27;20023;-74
2021/05/01 07:06:18;;;;;;;13.93;6.75;;;487.30;2176.00;;;;;;5130859;27;20046;-75
2021/05/01 07:08:45;;;;;;;12.07;6.95;;;487.30;2176.00;;;;;;5115180;28;20483;-74
2021/05/01 07:11:12;;;;;;;13.88;6.93;;;512.10;2201.60;;;;;;5131228;27;20026;-75
2021/05/01 07:13:39;;;;;;;12.70;7.15;;;512.10;2201.60;;;;;;5115335;28;20499;-75
2021/05/01 07:16:09;;;;;;;13.32;7.38;;;512.20;2176.00;;;;;;5132382;27;20040;-75
2021/05/01 07:18:40;;;;;;;17.00;7.68;;;512.20;2150.40;;;;;;5113320;28;20028;-75
2021/05/01 07:21:08;;;;;;;12.13;7.30;;;512.20;2150.40;;;;;;5114981;28;20027;-75
2021/05/01 07:23:34;;;;;;;16.77;8.27;;;512.40;2150.40;;;;;;5113670;28;20034;-76
2021/05/01 07:26:00;;;;;;;19.98;7.30;;;512.40;2150.40;;;;;;5113204;28;20048;-75
2021/05/01 07:28:26;;;;;;;16.50;7.32;;;512.40;2124.80;;;;;;5114363;28;20039;-74
2021/05/01 07:30:55;;;;;;;15.38;7.50;;;512.50;2150.40;;;;;;5113711;28;20020;-75
2021/05/01 07:33:25;;;;;;;10.80;6.88;;;512.60;2176.00;;;;;;5114147;28;20038;-75
2021/05/01 07:35:53;;;;;;;;;;;512.80;2124.80;;;;;;5113069;28;20028;-74
2021/05/01 07:38:22;;;;;;;10.68;5.70;;;512.80;2099.20;;;;;;5130164;27;19904;-74
2021/05/01 07:40:53;;;;;;;8.60;5.95;;;512.90;2048.00;;;;;;5130050;27;20036;-74
2021/05/01 07:43:23;;;;;;;12.27;6.72;;;512.90;1996.80;;;;;;5114164;28;20024;-75
2021/05/01 07:45:53;;;;;;;9.47;5.90;;;537.60;2099.20;;;;;;5114518;27;20027;-74
2021/05/01 07:48:20;;;;;;;19.75;6.40;;;537.70;2099.20;;;;;;5112935;28;20023;-74
2021/05/01 07:50:49;;;;;;;10.98;7.57;;;537.80;2124.80;;;;;;5114193;28;20090;-76
2021/05/01 07:53:15;;;;;;;15.68;6.90;;;537.90;2150.40;;;;;;5113080;28;20084;-77
2021/05/01 07:55:41;;;;;;;13.40;7.78;;;538.00;2124.80;;;;;;5114500;28;20572;-75
2021/05/01 07:58:08;;;;;;;12.70;7.82;;;538.10;2124.80;;;;;;5113023;28;20027;-74
2021/05/01 08:00:34;;;;;;;12.82;6.95;;;538.10;2124.80;;;;;;5106581;28;20032;-73
2021/05/01 08:03:01;;;;;;;11.50;8.13;;;538.20;2048.00;;;;;;5098640;28;20019;-74
2021/05/01 08:05:27;;;;;;;15.25;8.07;;;538.20;2124.80;;;;;;5114232;28;20107;-74
2021/05/01 08:07:53;;;;;;;16.00;7.30;;;538.20;2099.20;;;;;;5114344;28;20070;-76
2021/05/01 08:10:19;;;;;;;12.63;7.75;;;538.30;2048.00;;;;;;5114850;28;20092;-74
2021/05/01 08:12:45;;;;;;;15.90;8.13;;;538.40;2124.80;;;;;;5113151;28;20020;-73
2021/05/01 08:15:11;;;;;;;15.20;8.48;;;538.50;2099.20;;;;;;5112527;28;20388;-74
2021/05/01 08:17:40;;;;;;;12.45;6.47;;;563.20;2099.20;;;;;;5111957;28;20034;-74
2021/05/01 08:20:07;;;;;;;11.35;5.72;;;563.30;2073.60;;;;;;5114223;28;20015;-73
2021/05/01 08:22:33;;;;;;;12.20;6.65;;;563.30;2048.00;;;;;;5112360;28;20035;-74
2021/05/01 08:24:58;;;;;;;8.32;6.13;;;563.40;2048.00;;;;;;5113577;28;20081;-75
2021/05/01 08:27:25;;;;;;;13.02;6.18;;;563.50;1971.20;;;;;;5112238;28;20052;-74
2021/05/01 08:29:51;;;;;;;20.83;7.60;;;563.50;2048.00;;;;;;5111078;28;20131;-74
2021/05/01 08:32:17;;;;;;;15.55;7.78;;;563.70;2022.40;;;;;;5110816;28;20040;-74
2021/05/01 08:34:44;;;;;;;13.27;6.82;;;563.80;2022.40;;;;;;5112004;28;20023;-76
2021/05/01 08:37:11;;;;;;;11.25;7.53;;;563.80;2048.00;;;;;;5111533;28;20051;-73
2021/05/01 08:39:38;;;;;;;7.65;6.05;;;563.80;2022.40;;;;;;5112877;28;20080;-73
2021/05/01 08:42:05;;;;;;;11.25;6.20;;;563.90;1996.80;;;;;;5111052;28;20477;-73
2021/05/01 08:44:30;;;;;;;14.85;6.95;;;564.00;1996.80;;;;;;5107198;28;20056;-72
2021/05/01 08:46:56;;;;;;;15.27;6.68;;;564.10;2022.40;;;;;;5110871;28;20114;-72
2021/05/01 08:49:22;;;;;;;9.20;5.90;;;588.80;2022.40;;;;;;5111197;28;20488;-72
2021/05/01 08:51:48;;;;;;;10.80;5.20;;;588.80;1945.60;;;;;;5109596;28;20016;-74
2021/05/01 08:54:15;;;;;;;13.50;5.82;;;588.90;1945.60;;;;;;5109493;28;20023;-71
2021/05/01 08:56:42;;;;;;;14.50;7.68;;;589.00;1920.00;;;;;;5111451;28;20019;-72
2021/05/01 08:59:08;;;;;;;11.57;5.78;;;589.00;1920.00;;;;;;5110352;28;20031;-72
2021/05/01 09:01:38;;;;;;;13.55;5.80;;;589.00;1945.60;;;;;;5111124;28;20162;-72
2021/05/01 09:04:06;;;;;;;11.63;5.68;;;589.10;1894.40;;;;;;5115184;28;20032;-72
2021/05/01 09:06:32;;;;;;;13.95;5.20;;;589.10;1945.60;;;;;;5114940;28;20476;-73
2021/05/01 09:09:05;;;;;;;10.32;5.25;;;589.20;1894.40;;;;;;5116226;28;20100;-73
2021/05/01 09:11:35;;;;;;;19.55;5.68;;;589.20;1868.80;;;;;;5116247;28;20450;-74
2021/05/01 09:14:20;;;;;;;12.17;5.40;;;589.40;1894.40;;;;;;5113363;28;20027;-74
2021/05/01 09:17:03;;;;;;;16.38;6.85;;;589.40;1843.20;;;;;;5115386;28;20756;-73
2021/05/01 09:19:33;;;;;;;14.65;5.13;;;589.50;1945.60;;;;;;5110563;28;20040;-72
2021/05/01 09:22:12;;;;;;;16.35;5.82;;;589.50;1920.00;;;;;;5112311;28;20084;-73
2021/05/01 09:24:39;;;;;;;13.88;5.93;;;589.60;1920.00;;;;;;5116498;28;20026;-73
2021/05/01 09:27:07;;;;;;;12.80;6.28;;;589.60;1894.40;;;;;;5131860;27;20042;-72
2021/05/01 09:29:37;;;;;;;12.35;5.40;;;614.40;1920.00;;;;;;5116861;28;20027;-73
2021/05/01 09:32:18;;;;;;;12.98;6.32;;;614.40;1894.40;;;;;;5115497;28;20023;-74
2021/05/01 09:34:47;;;;;;;12.57;6.50;;;614.50;1843.20;;;;;;5116558;28;20124;-74
2021/05/01 09:37:16;;;;;;;28.23;13.95;;;614.50;1868.80;;;;;;5114361;28;20028;-74
2021/05/01 09:39:55;;;;;;;17.60;8.93;;;614.60;1792.00;;;;;;5114622;28;20043;-74
2021/05/01 09:42:22;;;;;;;17.15;6.63;;;614.70;1817.60;;;;;;5113329;28;20015;-74
2021/05/01 09:45:06;;;;;;;18.90;9.02;;;614.70;1868.80;;;;;;5112806;28;20031;-74
2021/05/01 09:47:33;;;;;;;37.88;23.65;;;614.80;1843.20;;;;;;5114729;28;20032;-74
2021/05/01 09:49:59;;;;;;;24.05;9.82;;;614.80;1843.20;;;;;;5115048;28;20015;-74
2021/05/01 09:52:25;;;;;;;24.02;7.22;;;614.90;1843.20;;;;;;5115705;28;20027;-74
2021/05/01 09:54:51;;;;;;;16.60;7.03;;;615.00;1766.40;;;;;;5113304;28;20028;-74
2021/05/01 09:57:21;;;;;;;10.98;5.05;;;615.10;1792.00;;;;;;5112714;28;20081;-74
2021/05/01 09:59:56;;;;;;;12.45;4.95;;;615.20;1766.40;;;;;;5115011;28;20023;-74
2021/05/01 10:02:33;;;;;;;18.10;4.95;;;615.20;1766.40;;;;;;5113335;28;20032;-73
2021/05/01 10:05:11;;;;;;;11.75;5.35;;;615.10;1715.20;;;;;;5113621;28;20027;-74
2021/05/01 10:07:41;;;;;;;12.68;5.13;;;615.10;1792.00;;;;;;5124132;28;20035;-74
2021/05/01 10:10:08;;;;;;;14.43;6.18;;;615.10;1792.00;;;;;;5120644;28;20035;-74
2021/05/01 10:12:38;;;;;;;12.27;4.93;;;615.20;1766.40;;;;;;5114969;28;20135;-74
2021/05/01 10:15:27;;;;;;;12.07;5.45;;;615.20;1715.20;;;;;;5111786;28;20438;-74
2021/05/01 10:17:54;;;;;;;15.37;4.87;;;615.30;1689.60;;;;;;5114589;28;20115;-74
2021/05/01 10:20:20;;;;;;;16.98;6.47;;;615.30;1689.60;;;;;;5114821;28;20039;-73
2021/05/01 10:22:52;;;;;;;56.95;35.00;;;615.30;1664.00;;;;;;5113015;28;20088;-74
2021/05/01 10:25:17;;;;;;;86.22;52.42;;;615.30;1689.60;;;;;;5114390;28;20056;-74
2021/05/01 10:27:53;;;;;;;37.88;14.88;;;640.00;1689.60;;;;;;5114321;28;20082;-74
2021/05/01 10:30:41;;;;;;;27.50;10.00;;;615.30;1664.00;;;;;;5114218;28;20026;-73
2021/05/01 10:36:10;;;;;;;14.35;5.25;;;615.30;1664.00;;;;;;5114290;28;20077;-74
2021/05/01 10:38:37;;;;;;;12.43;6.57;;;640.00;1715.20;;;;;;5114133;28;20016;-74
2021/05/01 10:41:06;;;;;;;10.07;5.13;;;615.30;1612.80;;;;;;5114038;27;20503;-74
2021/05/01 10:43:39;;;;;;;16.25;5.35;;;640.00;1740.80;;;;;;5114074;28;20050;-74
2021/05/01 10:46:08;;;;;;;23.73;10.75;;;640.00;1664.00;;;;;;5114129;28;20388;-74
2021/05/01 10:48:47;;;;;;;44.30;25.20;;;640.10;1612.80;;;;;;5113811;28;20538;-73
2021/05/01 10:51:15;;;;;;;25.88;13.80;;;640.20;1638.40;;;;;;5112397;28;20031;-74
2021/05/01 10:53:41;;;;;;;28.42;17.55;;;640.20;1638.40;;;;;;5113950;28;20022;-74
2021/05/01 10:56:09;;;;;;;20.45;9.15;;;640.20;1638.40;;;;;;5113977;28;20050;-74
2021/05/01 10:58:39;;;;;;;16.92;5.93;;;640.20;1612.80;;;;;;5113874;28;20495;-73
2021/05/01 11:01:11;;;;;;;12.07;4.45;;;640.30;1689.60;;;;;;5129153;27;20039;-74
2021/05/01 11:03:47;;;;;;;10.05;6.13;;;640.40;1638.40;;;;;;5112267;28;20043;-74
2021/05/01 11:06:20;;;;;;;12.25;3.92;;;640.30;1561.60;;;;;;5129140;27;20088;-74
2021/05/01 11:09:07;;;;;;;11.48;5.03;;;640.30;1587.20;;;;;;5113609;28;20027;-74
2021/05/01 11:11:38;;;;;;;9.50;5.70;;;640.40;1587.20;;;;;;5128983;27;20073;-73
2021/05/01 11:14:26;;;;;;;8.70;4.80;;;640.40;1561.60;;;;;;5113655;28;20022;-73
2021/05/01 11:17:33;;;;;;;14.75;5.32;;;640.50;1612.80;;;;;;5111882;28;20031;-74
2021/05/01 11:20:10;;;;;;;9.88;4.90;;;640.50;1536.00;;;;;;5098697;28;20057;-74
2021/05/01 11:22:39;;;;;;;8.68;4.50;;;640.40;1510.40;;;;;;5112040;28;20058;-73
2021/05/01 11:25:15;;;;;;;10.65;2.90;;;640.40;1510.40;;;;;;5112892;28;20024;-74
2021/05/01 11:27:43;;;;;;;8.50;4.47;;;640.50;1510.40;;;;;;5111754;28;20137;-75
2021/05/01 11:30:11;;;;;;;9.30;3.50;;;640.60;1484.80;;;;;;5113082;27;20055;-75
2021/05/01 11:32:37;;;;;;;16.17;6.45;;;640.50;1484.80;;;;;;5111803;28;20161;-75
2021/05/01 11:35:17;;;;;;;11.27;4.55;;;640.60;1510.40;;;;;;5113103;28;20020;-73
2021/05/01 11:37:56;;;;;;;;;;;640.80;1408.00;;;;;;5112057;28;20435;-75
2021/05/01 11:40:33;;;;;;;7.28;2.90;;;640.90;1382.40;;;;;;5111846;28;19994;-74
2021/05/01 11:43:00;;;;;;;16.20;4.15;;;665.60;1382.40;;;;;;5113047;28;20031;-74
2021/05/01 11:45:41;;;;;;;17.05;8.77;;;665.70;1305.60;;;;;;5111590;28;20035;-73
2021/05/01 11:48:12;;;;;;;17.27;7.22;;;665.60;1382.40;;;;;;5112968;28;20081;-73
2021/05/01 11:50:40;;;;;;;19.55;6.03;;;640.80;1356.80;;;;;;5112819;28;20437;-73
2021/05/01 11:53:33;;;;;;;20.38;4.80;;;640.80;1331.20;;;;;;5111028;28;20035;-74
2021/05/01 11:56:19;;;;;;;23.65;10.02;;;640.80;1382.40;;;;;;5112652;28;20042;-73
2021/05/01 11:58:45;;;;;;;18.25;7.20;;;640.70;1382.40;;;;;;5111355;28;20024;-74
2021/05/01 12:01:20;;;;;;;16.88;5.55;;;640.60;1408.00;;;;;;5111078;28;20127;-74
2021/05/01 12:03:55;;;;;;;7.45;3.92;;;640.70;1382.40;;;;;;5112456;28;20020;-74
2021/05/01 12:06:32;;;;;;;16.73;4.13;;;640.70;1331.20;;;;;;5112569;28;20027;-74
2021/05/01 12:09:03;;;;;;;9.60;3.88;;;640.70;1382.40;;;;;;5112389;28;20095;-74
2021/05/01 12:11:31;;;;;;;12.75;4.90;;;640.70;1382.40;;;;;;5128036;27;20024;-74
2021/05/01 12:13:59;;;;;;;14.57;3.33;;;640.50;1408.00;;;;;;5112250;28;20016;-73
2021/05/01 12:16:25;;;;;;;11.25;2.88;;;640.40;1408.00;;;;;;5111113;28;20080;-74